createdAt,value
2023-01-15T00:02:13.338Z,5.00
2023-01-15T00:04:39.935Z,6.73
2023-01-15T00:07:06.592Z,5.80
2023-01-15T00:09:33.289Z,8.43
2023-01-15T00:12:00.857Z,9.53
2023-01-15T00:14:27.631Z,6.50
2023-01-15T00:16:54.198Z,7.93
2023-01-15T00:19:21.013Z,9.13
2023-01-15T00:21:47.726Z,6.63
2023-01-15T00:24:32.943Z,4.73
2023-01-15T00:27:18.606Z,9.27
2023-01-15T00:29:46.539Z,8.07
2023-01-15T00:32:13.182Z,7.77
2023-01-15T00:34:39.929Z,7.27
2023-01-15T00:37:06.532Z,6.37
2023-01-15T00:39:34.570Z,6.47
2023-01-15T00:42:01.293Z,7.47
2023-01-15T00:44:27.954Z,7.10
2023-01-15T00:46:54.606Z,8.27
2023-01-15T00:49:21.997Z,4.33
2023-01-15T00:51:50.143Z,8.67
2023-01-15T00:54:17.249Z,7.70
2023-01-15T00:56:43.842Z,6.07
2023-01-15T00:59:10.437Z,9.83
2023-01-15T01:01:37.278Z,8.07
2023-01-15T01:04:07.095Z,7.23
2023-01-15T01:06:34.847Z,7.00
2023-01-15T01:09:04.633Z,5.63
2023-01-15T01:11:34.410Z,6.20
2023-01-15T01:14:02.732Z,6.27
2023-01-15T01:16:31.926Z,4.83
2023-01-15T01:18:58.745Z,3.27
2023-01-15T01:21:25.559Z,6.60
2023-01-15T01:23:52.133Z,4.47
2023-01-15T01:29:04.385Z,9.60
2023-01-15T01:34:18.323Z,5.53
2023-01-15T01:36:45.222Z,5.77
2023-01-15T01:39:15.832Z,3.13
2023-01-15T01:41:42.577Z,8.33
2023-01-15T02:16:17.626Z,3.83
2023-01-15T02:18:51.023Z,3.73
2023-01-15T02:21:24.984Z,3.10
2023-01-15T02:23:57.917Z,4.20
2023-01-15T02:26:24.714Z,6.07
2023-01-15T02:28:51.764Z,3.70
2023-01-15T02:31:25.019Z,5.83
2023-01-15T02:33:56.335Z,4.27
2023-01-15T02:36:23.381Z,2.63
2023-01-15T02:41:37.106Z,3.90
2023-01-15T02:44:05.173Z,2.80
2023-01-15T02:46:34.093Z,6.10
2023-01-15T02:49:03.087Z,7.90
2023-01-15T02:54:22.052Z,3.93
2023-01-15T02:56:50.578Z,3.10
2023-01-15T02:59:21.985Z,3.07
2023-01-15T03:04:46.610Z,3.47
2023-01-15T03:07:23.909Z,3.03
2023-01-15T03:09:50.913Z,5.70
2023-01-15T03:12:17.490Z,3.87
2023-01-15T03:17:48.132Z,4.63
2023-01-15T03:23:08.772Z,2.93
2023-01-15T03:28:28.394Z,4.00
2023-01-15T03:33:39.250Z,3.67
2023-01-15T03:39:01.023Z,1.23
2023-01-15T03:42:32.597Z,5.40
2023-01-15T03:45:08.615Z,3.10
2023-01-15T03:50:39.235Z,3.30
2023-01-15T03:53:10.900Z,4.23
2023-01-15T03:55:43.627Z,3.10
2023-01-15T03:58:13.471Z,3.23
2023-01-15T04:00:46.202Z,3.23
2023-01-15T04:03:14.992Z,4.10
2023-01-15T04:05:41.668Z,2.83
2023-01-15T04:08:08.272Z,3.63
2023-01-15T04:10:35.790Z,3.87
2023-01-15T04:13:04.308Z,1.50
2023-01-15T04:15:31.709Z,4.03
2023-01-15T04:17:58.430Z,5.70
2023-01-15T04:20:28.021Z,2.07
2023-01-15T04:22:54.630Z,3.67
2023-01-15T04:28:05.091Z,3.90
2023-01-15T04:30:31.808Z,4.00
2023-01-15T04:32:58.538Z,1.90
2023-01-15T04:35:25.132Z,2.13
2023-01-15T04:37:55.773Z,2.37
2023-01-15T04:40:41.049Z,2.90
2023-01-15T04:43:27.249Z,2.33
2023-01-15T04:45:53.880Z,2.57
2023-01-15T04:48:20.448Z,2.40
2023-01-15T04:53:31.186Z,1.30
2023-01-15T04:58:46.008Z,0.73
2023-01-15T05:01:16.466Z,2.07
2023-01-15T05:03:43.137Z,1.13
2023-01-15T05:06:10.079Z,3.53
2023-01-15T05:08:36.780Z,2.43
2023-01-15T05:11:04.004Z,1.43
2023-01-15T05:13:33.173Z,3.40
2023-01-15T05:19:01.160Z,2.43
2023-01-15T05:24:16.463Z,1.50
2023-01-15T05:26:43.109Z,2.10
2023-01-15T05:29:10.172Z,2.20
2023-01-15T05:31:36.728Z,2.30
2023-01-15T05:34:03.351Z,1.80
2023-01-15T05:36:30.478Z,0.90
2023-01-15T05:39:01.970Z,1.90
2023-01-15T05:41:47.604Z,3.23
2023-01-15T05:44:14.949Z,2.27
2023-01-15T05:46:42.012Z,1.53
2023-01-15T05:49:09.587Z,1.93
2023-01-15T05:51:39.128Z,3.67
2023-01-15T05:54:06.172Z,1.83
2023-01-15T05:56:34.879Z,2.13
2023-01-15T05:59:01.476Z,2.47
2023-01-15T06:01:28.051Z,2.57
2023-01-15T06:03:57.964Z,2.50
2023-01-15T06:06:24.528Z,4.40
2023-01-15T06:08:51.104Z,2.30
2023-01-15T06:11:17.725Z,1.40
2023-01-15T06:13:44.403Z,1.90
2023-01-15T06:16:11.203Z,2.03
2023-01-15T06:18:40.675Z,1.90
2023-01-15T06:21:08.095Z,2.97
2023-01-15T06:23:36.842Z,4.03
2023-01-15T06:26:08.049Z,4.77
2023-01-15T06:28:34.757Z,3.07
2023-01-15T06:31:04.255Z,2.00
2023-01-15T06:33:30.961Z,1.80
2023-01-15T06:35:57.528Z,1.20
2023-01-15T06:38:24.128Z,1.47
2023-01-15T06:40:50.747Z,1.23
2023-01-15T06:43:36.055Z,1.90
2023-01-15T06:46:25.526Z,1.57
2023-01-15T06:48:52.171Z,0.63
2023-01-15T06:51:20.373Z,1.33
2023-01-15T06:53:47.208Z,1.10
2023-01-15T06:56:17.195Z,0.97
2023-01-15T06:58:43.908Z,1.00
2023-01-15T07:01:11.161Z,1.87
2023-01-15T07:03:37.853Z,0.80
2023-01-15T07:06:08.776Z,1.10
2023-01-15T07:08:35.551Z,1.40
2023-01-15T07:11:03.099Z,1.60
2023-01-15T07:13:29.702Z,1.30
2023-01-15T07:18:41.764Z,1.87
2023-01-15T07:23:53.162Z,1.07
2023-01-15T07:29:04.028Z,1.13
2023-01-15T07:31:30.646Z,1.30
2023-01-15T07:33:57.368Z,2.00
2023-01-15T07:36:24.251Z,2.17
2023-01-15T07:38:50.966Z,1.77
2023-01-15T07:41:36.382Z,2.03
2023-01-15T07:47:27.966Z,1.90
2023-01-15T07:49:55.739Z,0.90
2023-01-15T07:52:22.461Z,0.80
2023-01-15T07:54:49.593Z,1.00
2023-01-15T07:57:21.436Z,1.40
2023-01-15T07:59:48.324Z,1.47
2023-01-15T08:02:14.881Z,2.40
2023-01-15T08:04:41.629Z,2.10
2023-01-15T08:07:08.504Z,2.40
2023-01-15T08:09:35.425Z,2.13
2023-01-15T08:12:20.850Z,3.30
2023-01-15T08:15:06.047Z,3.87
2023-01-15T08:17:35.916Z,2.20
2023-01-15T08:20:09.949Z,2.43
2023-01-15T08:22:38.603Z,2.40
2023-01-15T08:25:05.451Z,2.10
2023-01-15T08:27:33.487Z,2.00
2023-01-15T08:30:00.253Z,2.40
2023-01-15T08:32:26.966Z,1.93
2023-01-15T08:34:53.513Z,1.90
2023-01-15T08:37:20.217Z,2.67
2023-01-15T08:39:46.871Z,1.97
2023-01-15T08:42:13.512Z,2.00
2023-01-15T08:44:40.124Z,7.80
2023-01-15T08:47:06.715Z,2.50
2023-01-15T08:49:33.374Z,2.10
2023-01-15T08:52:01.072Z,1.60
2023-01-15T08:54:27.859Z,3.47
2023-01-15T08:56:54.561Z,4.90
2023-01-15T08:59:21.238Z,3.70
2023-01-15T09:01:47.960Z,2.30
2023-01-15T09:04:15.350Z,4.10
2023-01-15T09:06:42.271Z,3.87
2023-01-15T09:09:08.928Z,4.67
2023-01-15T09:11:36.294Z,3.40
2023-01-15T09:14:02.945Z,3.97
2023-01-15T09:16:32.067Z,2.83
2023-01-15T09:18:58.916Z,3.30
2023-01-15T09:21:25.655Z,4.27
2023-01-15T09:23:52.217Z,6.63
2023-01-15T09:26:32.285Z,6.27
2023-01-15T09:28:59.201Z,8.27
2023-01-15T09:31:28.842Z,5.07
2023-01-15T09:33:55.927Z,4.63
2023-01-15T09:36:29.709Z,3.23
2023-01-15T09:38:56.806Z,7.27
2023-01-15T09:41:42.212Z,2.97
2023-01-15T09:47:05.286Z,5.77
2023-01-15T09:49:41.621Z,5.20
2023-01-15T09:52:14.313Z,4.57
2023-01-15T09:57:29.037Z,6.37
2023-01-15T10:00:01.052Z,5.60
2023-01-15T10:02:30.178Z,4.87
2023-01-15T10:07:51.664Z,4.77
2023-01-15T10:10:18.891Z,5.60
2023-01-15T10:12:45.642Z,3.07
2023-01-15T10:15:31.301Z,5.20
2023-01-15T10:17:58.322Z,6.30
2023-01-15T10:20:43.845Z,5.63
2023-01-15T10:23:28.758Z,6.03
2023-01-15T10:29:03.594Z,5.60
2023-01-15T10:31:53.370Z,2.63
2023-01-15T10:34:27.273Z,5.23
2023-01-15T10:40:17.249Z,6.30
2023-01-15T10:42:50.465Z,3.73
2023-01-15T10:45:24.704Z,3.73
2023-01-15T10:47:53.504Z,4.60
2023-01-15T10:50:24.553Z,9.27
2023-01-15T10:52:52.567Z,8.23
2023-01-15T10:55:21.723Z,7.57
2023-01-15T10:58:09.875Z,7.60
2023-01-15T11:03:22.689Z,4.57
2023-01-15T11:05:49.956Z,5.33
2023-01-15T11:09:07.362Z,5.23
2023-01-15T11:11:19.247Z,6.53
2023-01-15T11:14:11.225Z,7.30
2023-01-15T11:16:57.007Z,7.50
2023-01-15T11:19:40.260Z,5.13
2023-01-15T11:22:11.444Z,5.93
2023-01-15T11:24:38.930Z,6.00
2023-01-15T11:27:05.775Z,5.00
2023-01-15T11:29:34.021Z,3.43
2023-01-15T11:32:01.938Z,5.23
2023-01-15T11:34:28.664Z,2.90
2023-01-15T11:37:04.821Z,3.83
2023-01-15T11:39:32.127Z,6.03
2023-01-15T11:45:21.671Z,3.40
2023-01-15T11:48:13.328Z,4.23
2023-01-15T11:50:50.362Z,4.10
2023-01-15T11:53:19.546Z,3.57
2023-01-15T11:55:59.953Z,4.60
2023-01-15T11:58:27.948Z,3.27
2023-01-15T12:00:56.955Z,4.73
2023-01-15T12:03:26.234Z,3.03
2023-01-15T12:06:00.302Z,2.33
2023-01-15T12:08:33.037Z,3.60
2023-01-15T12:11:25.185Z,3.23
2023-01-15T12:14:02.253Z,4.30
2023-01-15T12:16:29.321Z,4.13
2023-01-15T12:18:59.420Z,4.53
2023-01-15T12:21:30.638Z,4.00
2023-01-15T12:24:00.521Z,5.47
2023-01-15T12:26:30.453Z,5.70
2023-01-15T12:29:04.147Z,6.40
2023-01-15T12:34:21.921Z,8.27
2023-01-15T12:36:55.749Z,7.23
2023-01-15T12:39:28.206Z,5.87
2023-01-15T12:42:15.654Z,6.00
2023-01-15T12:45:01.093Z,4.93
2023-01-15T12:50:22.513Z,8.60
2023-01-15T12:52:50.325Z,6.20
2023-01-15T12:55:19.533Z,6.33
2023-01-15T12:57:50.065Z,5.40
2023-01-15T13:00:27.365Z,4.93
2023-01-15T13:03:03.555Z,4.00
2023-01-15T13:05:31.389Z,3.97
2023-01-15T13:08:13.956Z,5.43
2023-01-15T13:10:40.662Z,6.23
2023-01-15T13:13:17.502Z,6.90
2023-01-15T13:16:06.175Z,5.83
2023-01-15T13:18:50.969Z,3.17
2023-01-15T13:21:18.124Z,8.87
2023-01-15T13:24:20.305Z,7.70
2023-01-15T13:27:02.036Z,8.73
2023-01-15T13:29:47.216Z,8.20
2023-01-15T13:35:20.999Z,10.90
2023-01-15T13:37:49.373Z,5.83
2023-01-15T13:40:19.046Z,7.77
2023-01-15T13:42:46.485Z,6.40
2023-01-15T13:45:32.921Z,8.03
2023-01-15T13:48:07.357Z,6.97
2023-01-15T13:50:35.399Z,4.23
2023-01-15T13:53:13.809Z,6.73
2023-01-15T13:55:40.979Z,6.77
2023-01-15T13:58:17.385Z,8.23
2023-01-15T14:00:44.114Z,7.70
2023-01-15T14:03:30.122Z,6.27
2023-01-15T14:06:00.638Z,4.00
2023-01-15T14:08:28.578Z,6.07
2023-01-15T14:10:56.331Z,4.43
2023-01-15T14:16:39.870Z,5.13
2023-01-15T14:19:25.355Z,6.97
2023-01-15T14:21:56.440Z,4.27
2023-01-15T14:24:32.418Z,5.40
2023-01-15T14:27:13.205Z,5.47
2023-01-15T14:30:03.302Z,4.57
2023-01-15T14:32:36.108Z,4.67
2023-01-15T14:35:05.872Z,5.40
2023-01-15T14:37:33.803Z,4.57
2023-01-15T14:40:01.619Z,4.80
2023-01-15T14:42:58.126Z,11.07
2023-01-15T14:45:25.714Z,2.87
2023-01-15T14:47:53.270Z,4.07
2023-01-15T14:50:25.909Z,6.20
2023-01-15T14:52:53.269Z,6.93
2023-01-15T14:55:20.547Z,2.87
2023-01-15T14:58:04.161Z,6.63
2023-01-15T15:00:38.164Z,4.60
2023-01-15T15:03:26.756Z,6.03
2023-01-15T15:05:53.630Z,4.47
2023-01-15T15:08:20.520Z,8.03
2023-01-15T15:10:48.747Z,2.27
2023-01-15T15:13:28.057Z,4.10
2023-01-15T15:16:27.115Z,4.43
2023-01-15T15:19:01.820Z,5.80
2023-01-15T15:24:19.161Z,7.40
2023-01-15T15:26:46.745Z,8.83
2023-01-15T15:29:14.510Z,4.27
2023-01-15T15:31:43.469Z,5.80
2023-01-15T15:34:22.508Z,6.00
2023-01-15T15:36:49.179Z,5.53
2023-01-15T15:39:27.312Z,3.23
2023-01-15T15:42:13.135Z,3.53
2023-01-15T15:45:01.711Z,5.53
2023-01-15T15:47:47.017Z,7.73
2023-01-15T15:50:24.125Z,8.07
2023-01-15T15:52:50.975Z,8.37
2023-01-15T15:55:18.644Z,8.33
2023-01-15T15:57:45.781Z,10.00
2023-01-15T16:00:19.771Z,5.87
2023-01-15T16:02:47.615Z,9.53
2023-01-15T16:05:24.424Z,7.83
2023-01-15T16:07:52.044Z,5.43
2023-01-15T16:10:26.018Z,7.33
2023-01-15T16:12:57.006Z,5.10
2023-01-15T16:15:23.643Z,8.10
2023-01-15T16:17:50.335Z,6.00
2023-01-15T16:23:06.416Z,5.70
2023-01-15T16:25:34.217Z,4.50
2023-01-15T16:28:01.145Z,5.50
2023-01-15T16:30:28.423Z,4.93
2023-01-15T16:32:57.889Z,6.30
2023-01-15T16:35:24.827Z,6.63
2023-01-15T16:37:52.539Z,5.60
2023-01-15T16:40:30.017Z,14.27
2023-01-15T16:43:10.716Z,9.43
2023-01-15T16:45:38.029Z,5.97
2023-01-15T16:48:07.638Z,11.80
2023-01-15T16:50:34.773Z,5.80
2023-01-15T16:53:02.308Z,6.30
2023-01-15T16:55:44.628Z,5.17
2023-01-15T16:58:15.048Z,8.00
2023-01-15T17:00:43.313Z,8.63
2023-01-15T17:03:16.541Z,6.10
2023-01-15T17:05:43.499Z,4.77
2023-01-15T17:08:17.460Z,5.27
2023-01-15T17:10:54.472Z,5.50
2023-01-15T17:13:22.097Z,5.03
2023-01-15T17:15:55.929Z,5.73
2023-01-15T17:18:26.622Z,4.80
2023-01-15T17:20:53.397Z,4.17
2023-01-15T17:23:21.915Z,5.43
2023-01-15T17:25:49.846Z,4.77
2023-01-15T17:28:19.163Z,8.37
2023-01-15T17:30:48.478Z,3.13
2023-01-15T17:33:15.787Z,5.67
2023-01-15T17:35:43.123Z,6.33
2023-01-15T17:38:12.416Z,3.83
2023-01-15T17:40:39.309Z,6.33
2023-01-15T17:43:06.117Z,4.03
2023-01-15T17:45:33.054Z,3.90
2023-01-15T17:48:00.197Z,4.70
2023-01-15T17:50:28.629Z,4.37
2023-01-15T17:52:55.293Z,3.80
2023-01-15T17:55:41.481Z,2.77
2023-01-15T17:58:37.676Z,4.17
2023-01-15T18:01:24.480Z,2.27
2023-01-15T18:04:10.324Z,5.40
2023-01-15T18:09:21.573Z,2.20
2023-01-15T18:11:48.477Z,2.70
2023-01-15T18:14:15.552Z,3.50
2023-01-15T18:16:42.210Z,1.57
2023-01-15T18:19:08.956Z,1.70
2023-01-15T18:21:39.295Z,3.50
2023-01-15T18:24:07.234Z,3.40
2023-01-15T18:26:35.260Z,2.37
2023-01-15T18:29:02.512Z,4.93
2023-01-15T18:31:29.649Z,3.27
2023-01-15T18:33:56.774Z,4.97
2023-01-15T18:36:23.397Z,4.73
2023-01-15T18:38:51.057Z,3.30
2023-01-15T18:41:44.795Z,8.33
2023-01-15T18:44:31.915Z,3.23
2023-01-15T18:46:59.257Z,2.63
2023-01-15T18:49:26.347Z,1.10
2023-01-15T18:52:12.323Z,2.03
2023-01-15T18:54:38.965Z,2.70
2023-01-15T18:57:05.565Z,2.00
2023-01-15T18:59:32.301Z,3.33
2023-01-15T19:01:59.175Z,4.53
2023-01-15T19:04:26.263Z,2.60
2023-01-15T19:06:52.890Z,2.83
2023-01-15T19:09:21.379Z,1.57
2023-01-15T19:11:49.288Z,2.57
2023-01-15T19:14:35.118Z,2.47
2023-01-15T19:17:20.764Z,3.83
2023-01-15T19:19:48.835Z,2.57
2023-01-15T19:22:34.622Z,4.20
2023-01-15T19:25:01.593Z,3.13
2023-01-15T19:27:28.267Z,2.67
2023-01-15T19:33:04.462Z,2.30
2023-01-15T19:35:31.928Z,4.27
2023-01-15T19:37:58.938Z,5.47
2023-01-15T19:40:26.790Z,2.90
2023-01-15T19:46:15.263Z,4.87
2023-01-15T19:52:03.448Z,2.40
2023-01-15T19:54:49.381Z,2.67
2023-01-15T19:57:21.410Z,3.03
2023-01-15T19:59:48.334Z,5.93
2023-01-15T20:04:59.885Z,4.33
2023-01-15T20:10:12.371Z,2.60
2023-01-15T20:12:57.442Z,3.33
2023-01-15T20:15:24.218Z,1.73
2023-01-15T20:17:50.863Z,4.87
2023-01-15T20:23:02.687Z,3.07
2023-01-15T20:25:32.527Z,2.80
2023-01-15T20:28:02.465Z,4.80
2023-01-15T20:30:29.172Z,3.23
2023-01-15T20:33:00.523Z,5.53
2023-01-15T20:35:29.285Z,2.43
2023-01-15T20:37:55.925Z,2.30
2023-01-15T20:40:23.982Z,1.93
2023-01-15T20:43:09.730Z,3.87
2023-01-15T20:45:38.389Z,3.67
2023-01-15T20:48:13.968Z,3.33
2023-01-15T20:53:51.570Z,3.50
2023-01-15T20:56:19.325Z,4.27
2023-01-15T20:58:47.585Z,2.73
2023-01-15T21:01:14.697Z,2.50
2023-01-15T21:06:26.652Z,4.03
2023-01-15T21:11:39.283Z,4.20
2023-01-15T21:16:51.791Z,7.47
2023-01-15T21:22:04.424Z,2.87
2023-01-15T21:24:31.767Z,5.50
2023-01-15T21:26:58.522Z,3.30
2023-01-15T21:29:25.217Z,3.40
2023-01-15T21:31:52.271Z,3.83
2023-01-15T21:34:19.372Z,4.87
2023-01-15T21:36:47.520Z,2.27
2023-01-15T21:39:16.777Z,3.40
2023-01-15T21:42:03.356Z,2.07
2023-01-15T21:44:35.594Z,2.37
2023-01-15T21:47:03.153Z,5.03
2023-01-15T21:49:32.422Z,1.57
2023-01-15T21:54:50.001Z,3.73
2023-01-15T21:57:19.088Z,1.60
2023-01-15T21:59:46.997Z,0.90
2023-01-15T22:02:16.668Z,2.97
2023-01-15T22:07:27.717Z,2.07
2023-01-15T22:12:59.856Z,2.40
2023-01-15T22:15:54.801Z,2.73
2023-01-15T22:18:26.053Z,2.40
2023-01-15T22:21:11.148Z,5.53
2023-01-15T22:24:32.901Z,1.43
2023-01-15T22:27:06.522Z,1.90
2023-01-15T22:29:34.484Z,1.70
2023-01-15T22:32:04.704Z,2.07
2023-01-15T22:34:31.501Z,2.40
2023-01-15T22:36:58.171Z,1.60
2023-01-15T22:39:24.931Z,2.77
2023-01-15T22:42:10.393Z,2.27
2023-01-15T22:44:37.255Z,1.37
2023-01-15T22:47:07.689Z,3.17
2023-01-15T22:49:34.335Z,2.80
2023-01-15T22:52:01.006Z,1.83
2023-01-15T22:54:27.672Z,3.13
2023-01-15T22:56:54.333Z,3.17
2023-01-15T22:59:21.006Z,0.87
2023-01-15T23:01:47.731Z,1.90
2023-01-15T23:04:15.587Z,3.13
2023-01-15T23:06:42.259Z,3.33
2023-01-15T23:09:08.925Z,1.43
2023-01-15T23:14:20.119Z,1.73
2023-01-15T23:19:32.394Z,3.17
2023-01-15T23:22:00.641Z,3.07
2023-01-15T23:24:27.349Z,2.10
2023-01-15T23:26:54.006Z,1.33
2023-01-15T23:29:20.689Z,0.93
2023-01-15T23:31:47.242Z,4.30
2023-01-15T23:34:13.906Z,4.50
2023-01-15T23:36:40.567Z,0.77
2023-01-15T23:39:07.321Z,2.80
2023-01-15T23:44:55.003Z,2.40
2023-01-15T23:47:21.725Z,1.87
2023-01-15T23:49:48.320Z,2.03
2023-01-15T23:52:14.913Z,2.80
2023-01-15T23:54:41.571Z,1.70
2023-01-15T23:57:08.783Z,1.20
2023-01-15T23:59:35.385Z,2.23
